sensor_id;sensor_type;location;lat;lon;timestamp;P1;durP1;ratioP1;P2;durP2;ratioP2
948;SDS011;461;51.436;7.312;2023-05-07T04:49:17;15.53;;;13.43;;
948;SDS011;461;51.436;7.312;2023-05-07T04:51:46;14.37;;;12.80;;
948;SDS011;461;51.436;7.312;2023-05-07T04:54:15;13.77;;;12.47;;
948;SDS011;461;51.436;7.312;2023-05-07T04:56:45;13.93;;;12.50;;
948;SDS011;461;51.436;7.312;2023-05-07T04:59:17;13.87;;;11.83;;
948;SDS011;461;51.436;7.312;2023-05-07T05:01:55;16.17;;;12.50;;
948;SDS011;461;51.436;7.312;2023-05-07T05:04:29;14.70;;;12.50;;
948;SDS011;461;51.436;7.312;2023-05-07T05:07:07;13.73;;;12.33;;
948;SDS011;461;51.436;7.312;2023-05-07T05:09:34;11.57;;;10.37;;
948;SDS011;461;51.436;7.312;2023-05-07T05:12:02;11.13;;;10.07;;
948;SDS011;461;51.436;7.312;2023-05-07T05:14:32;10.60;;;9.60;;
948;SDS011;461;51.436;7.312;2023-05-07T05:17:05;10.27;;;8.00;;
948;SDS011;461;51.436;7.312;2023-05-07T05:19:51;9.27;;;7.87;;
948;SDS011;461;51.436;7.312;2023-05-07T05:22:54;11.57;;;7.70;;
948;SDS011;461;51.436;7.312;2023-05-07T05:25:27;9.93;;;7.77;;
948;SDS011;461;51.436;7.312;2023-05-07T05:28:11;8.37;;;7.47;;
948;SDS011;461;51.436;7.312;2023-05-07T05:30:42;9.23;;;8.10;;
948;SDS011;461;51.436;7.312;2023-05-07T05:35:41;8.30;;;7.50;;
948;SDS011;461;51.436;7.312;2023-05-07T05:38:10;9.03;;;8.10;;
948;SDS011;461;51.436;7.312;2023-05-07T05:40:44;9.20;;;7.60;;
948;SDS011;461;51.436;7.312;2023-05-07T05:43:10;8.40;;;6.73;;
948;SDS011;461;51.436;7.312;2023-05-07T05:45:36;8.43;;;7.50;;
948;SDS011;461;51.436;7.312;2023-05-07T05:48:02;8.53;;;6.57;;
948;SDS011;461;51.436;7.312;2023-05-07T05:50:33;8.23;;;6.93;;
948;SDS011;461;51.436;7.312;2023-05-07T05:53:01;6.97;;;6.27;;
948;SDS011;461;51.436;7.312;2023-05-07T05:58:52;7.63;;;5.97;;
948;SDS011;461;51.436;7.312;2023-05-07T06:01:57;7.33;;;5.90;;
948;SDS011;461;51.436;7.312;2023-05-07T09:54:18;6.50;;;4.20;;
948;SDS011;461;51.436;7.312;2023-05-07T09:56:50;5.90;;;4.37;;
948;SDS011;461;51.436;7.312;2023-05-07T09:59:18;5.07;;;4.20;;
948;SDS011;461;51.436;7.312;2023-05-07T10:01:44;6.00;;;5.50;;
948;SDS011;461;51.436;7.312;2023-05-07T10:04:32;5.80;;;5.30;;
948;SDS011;461;51.436;7.312;2023-05-07T10:09:45;6.73;;;6.00;;
948;SDS011;461;51.436;7.312;2023-05-07T10:12:33;6.70;;;6.03;;
948;SDS011;461;51.436;7.312;2023-05-07T10:15:07;7.30;;;6.60;;
948;SDS011;461;51.436;7.312;2023-05-07T10:17:39;7.40;;;4.63;;
948;SDS011;461;51.436;7.312;2023-05-07T10:20:06;4.80;;;4.33;;
948;SDS011;461;51.436;7.312;2023-05-07T10:22:46;6.40;;;4.60;;
948;SDS011;461;51.436;7.312;2023-05-07T10:25:28;6.43;;;4.50;;
948;SDS011;461;51.436;7.312;2023-05-07T10:28:41;6.13;;;5.53;;
948;SDS011;461;51.436;7.312;2023-05-07T10:31:10;5.97;;;5.37;;
948;SDS011;461;51.436;7.312;2023-05-07T10:33:41;5.37;;;4.87;;
948;SDS011;461;51.436;7.312;2023-05-07T10:36:08;5.67;;;5.10;;
948;SDS011;461;51.436;7.312;2023-05-07T10:38:34;5.77;;;5.27;;
948;SDS011;461;51.436;7.312;2023-05-07T10:41:04;5.63;;;4.40;;
948;SDS011;461;51.436;7.312;2023-05-07T10:43:40;5.43;;;5.00;;
948;SDS011;461;51.436;7.312;2023-05-07T10:46:10;6.40;;;4.90;;
948;SDS011;461;51.436;7.312;2023-05-07T10:51:21;6.80;;;5.30;;
948;SDS011;461;51.436;7.312;2023-05-07T17:04:50;6.40;;;5.17;;
948;SDS011;461;51.436;7.312;2023-05-07T17:07:16;5.80;;;4.63;;
948;SDS011;461;51.436;7.312;2023-05-07T17:12:44;6.87;;;5.00;;
948;SDS011;461;51.436;7.312;2023-05-07T17:15:44;6.00;;;4.60;;
948;SDS011;461;51.436;7.312;2023-05-07T17:51:18;9.60;;;5.70;;
948;SDS011;461;51.436;7.312;2023-05-07T17:56:43;8.73;;;6.20;;
948;SDS011;461;51.436;7.312;2023-05-07T17:59:16;7.37;;;5.97;;
948;SDS011;461;51.436;7.312;2023-05-07T18:01:59;5.73;;;5.20;;
948;SDS011;461;51.436;7.312;2023-05-07T18:04:33;7.00;;;6.00;;
948;SDS011;461;51.436;7.312;2023-05-07T19:36:05;8.60;;;4.80;;
948;SDS011;461;51.436;7.312;2023-05-07T19:48:00;8.23;;;6.20;;
948;SDS011;461;51.436;7.312;2023-05-07T19:50:26;8.10;;;6.10;;
948;SDS011;461;51.436;7.312;2023-05-07T19:52:52;6.57;;;5.97;;
948;SDS011;461;51.436;7.312;2023-05-07T20:06:18;8.00;;;7.23;;
948;SDS011;461;51.436;7.312;2023-05-07T20:14:47;9.53;;;8.10;;
948;SDS011;461;51.436;7.312;2023-05-07T20:17:15;9.43;;;8.53;;
948;SDS011;461;51.436;7.312;2023-05-07T20:20:13;8.67;;;7.77;;
948;SDS011;461;51.436;7.312;2023-05-07T20:22:42;8.97;;;8.07;;
948;SDS011;461;51.436;7.312;2023-05-07T20:25:09;12.00;;;8.43;;
948;SDS011;461;51.436;7.312;2023-05-07T20:27:41;8.50;;;7.43;;
948;SDS011;461;51.436;7.312;2023-05-07T20:30:22;7.77;;;6.90;;
948;SDS011;461;51.436;7.312;2023-05-07T20:32:57;8.67;;;7.10;;
948;SDS011;461;51.436;7.312;2023-05-07T21:12:33;12.13;;;10.83;;
948;SDS011;461;51.436;7.312;2023-05-07T21:17:51;12.60;;;9.40;;
948;SDS011;461;51.436;7.312;2023-05-07T21:26:25;16.10;;;13.33;;
948;SDS011;461;51.436;7.312;2023-05-07T21:32:16;16.33;;;14.63;;
948;SDS011;461;51.436;7.312;2023-05-07T21:45:53;19.43;;;16.83;;
948;SDS011;461;51.436;7.312;2023-05-07T22:11:03;21.30;;;19.10;;
948;SDS011;461;51.436;7.312;2023-05-07T23:09:03;25.03;;;20.00;;
948;SDS011;461;51.436;7.312;2023-05-07T23:11:32;21.77;;;19.47;;
948;SDS011;461;51.436;7.312;2023-05-07T23:13:58;19.33;;;17.33;;
948;SDS011;461;51.436;7.312;2023-05-07T23:16:25;21.80;;;19.50;;
948;SDS011;461;51.436;7.312;2023-05-07T23:18:53;22.20;;;19.10;;
948;SDS011;461;51.436;7.312;2023-05-07T23:21:19;23.43;;;20.50;;
948;SDS011;461;51.436;7.312;2023-05-07T23:23:45;23.93;;;21.00;;
948;SDS011;461;51.436;7.312;2023-05-07T23:26:17;22.20;;;19.77;;
948;SDS011;461;51.436;7.312;2023-05-07T23:28:43;21.77;;;18.37;;
948;SDS011;461;51.436;7.312;2023-05-07T23:31:13;25.03;;;19.30;;
